Terminal Aerodrome Forecast
Issued by NWS

Home | Current Version | Previous Version | Text Only | Print | Product List | Glossary On
Versions: 1 2 3 4 5 6 7 8 9 10 11 12
256
FTUS45 KRIW 212325
TAFBPI
TAF
KBPI 212325Z 2200/2224 VRB10KT P6SM VCSH SCT060 BKN090
     FM220100 35007KT P6SM FEW090
     FM221600 35011KT P6SM SCT070 BKN120
     FM222000 35016G26KT P6SM SCT040 BKN060=

USA.gov is the U.S. government's official web portal to all federal, state and local government web resources and services.